Brandon, SD

8:07 PM CDT on March 27, 2015 (GMT -0500)
East Sioux Falls | | Change Station
CLOSE
Current Station
Personal Weather Station
Location: Sioux Falls, SD
Elevation: 1473 ft
Nearby Weather Stations

Elev 1473 ft 43.55 °N, 96.66 °W | Updated 6 seconds ago

Overcast
Overcast
32.5 °F
Feels Like 32 °F
N
1.3
Wind Variable Wind from SE
Gusts 2.5 mph

Today
High -- | Low -- °F
--% Chance of Precip.
Yesterday
High -- | Low -- °F
Precip. -- in
7:17 AM 7:46 PM
First Quarter, 57% visible
Pressure 30.11 in
Visibility 10.0 miles
Clouds Overcast 4400 ft
Windchill 32 °F
Dew Point 22 °F
Humidity 65%
Rainfall 0.00 in
Snow Depth Not available.
UV 0.0 out of 12
Pollen 2.20 out of 12
Air Quality Not available.
Flu Activity Not available.
METAR KFSD 280056Z 16010KT 10SM OVC044 01/M06 A3005 RMK AO2 SLP196 T00061061

More Conditions Fewer Conditions

Pressure 30.11 in
Visibility 10.0 miles
Clouds Overcast 4400 ft
Windchill 32 °F
Dew Point 22 °F
Humidity 65%
Rainfall 0.00 in
Snow Depth Not available.
UV 0.0 out of 12
Pollen 2.20 out of 12
Air Quality Not available.
Flu Activity Not available.
METAR KFSD 280056Z 16010KT 10SM OVC044 01/M06 A3005 RMK AO2 SLP196 T00061061

More Conditions Fewer Conditions

10-Day Weather Forecast

Almanac

Astronomy

Mar. 27, 2015 Rise Set
Actual Time
Civil Twilight
Nautical Twilight
Astronomical Twilight
Moon
Length of Visible Light
Length of Day
Tomorrow will be .
, % of the Moon is Illuminated

Today's Extremes

State Highs State Lows

Community

WunderPhotos

Upload Photos

1,808,901 photos uploaded!

WunderBlogs® & News

Nearby

Air Quality

  Air Quality AQ Index Pollutant
Not available.

Snow Depth

Station Depth Elevation

Earthquake Activity

City Distance Mag. Time & Date
Minimum magnitude displayed is 2.5.

Coastal Water Temperatures

Place Temperature

Stations

Nearby Weather Stations

Station Location Temp. Windchill Dew Point Humidity Wind Precip. Elev Updated Type